Aviation Digital Data Service (ADDS)

Output produced by METARs form (0235 UTC 26 July 2017)
found at http://www.aviationweather.gov/adds/metars/
 
KESN 260150Z 03005KT 10SM BKN070 24/18 A3020